Time;durP1;ratioP1;P1;durP2;ratioP2;P2;SDS_P1;SDS_P2;PMS_P1;PMS_P2;Temp;Humidity;BMP_temperature;BMP_pressure;BME280_temperature;BME280_humidity;BME280_pressure;Samples;Min_cycle;Max_cycle;Signal;HPM_P1;HPM_P2
2021/12/16 00:02:00;;;;;;;49.60;13.80;;;;;;;8.52;31.44;102921.19;5013960;28;20445;-42
2021/12/16 00:10:10;;;;;;;42.50;12.17;;;;;;;8.54;34.06;102919.22;5008559;28;20476;-45
2021/12/16 00:29:58;;;;;;;30.50;11.20;;;;;;;8.54;37.67;102913.09;4977920;28;20450;-41
2021/12/16 00:32:43;;;;;;;42.53;11.87;;;;;;;8.55;36.84;102917.41;5012831;28;20448;-43
2021/12/16 00:35:11;;;;;;;26.67;10.83;;;;;;;8.54;35.32;102921.06;5012850;28;20433;-41
2021/12/16 00:37:39;;;;;;;29.77;11.77;;;;;;;8.57;34.63;102918.16;5012546;28;20457;-42
2021/12/16 00:40:12;;;;;;;20.57;11.23;;;;;;;8.58;34.30;102919.81;5002668;28;20446;-42
2021/12/16 00:42:47;;;;;;;21.63;10.10;;;;;;;8.56;34.48;102911.13;5012560;28;20441;-42
2021/12/16 00:45:37;;;;;;;28.17;10.90;;;;;;;8.60;32.90;102928.53;5012817;28;20429;-41
2021/12/16 00:48:20;;;;;;;32.00;10.33;;;;;;;8.62;33.54;102930.09;5012102;28;20855;-42
2021/12/16 00:56:19;;;;;;;25.17;10.83;;;;;;;8.63;35.14;102941.56;5012659;28;20476;-44
2021/12/16 00:58:51;;;;;;;23.33;10.70;;;;;;;8.60;37.43;102940.00;5012200;28;20461;-42
2021/12/16 01:01:35;;;;;;;27.60;9.60;;;;;;;8.63;36.34;102938.91;5012682;28;20434;-42
2021/12/16 01:04:40;;;;;;;28.17;9.50;;;;;;;8.60;37.07;102940.00;5012561;28;20433;-43
2021/12/16 01:07:34;;;;;;;29.33;8.90;;;;;;;8.62;38.02;102937.22;5011975;28;20469;-41
2021/12/16 01:35:06;;;;;;;23.07;7.30;;;;;;;8.41;40.20;102976.25;5012085;28;20440;-42
2021/12/16 01:38:12;;;;;;;22.40;8.53;;;;;;;8.42;37.78;102978.78;5011836;28;20472;-45
2021/12/16 01:41:15;;;;;;;23.87;8.00;;;;;;;8.40;37.59;102980.72;4993611;28;20438;-42
2021/12/16 01:46:55;;;;;;;28.67;9.10;;;;;;;8.39;36.79;102984.38;4992173;28;20797;-41
2021/12/16 01:52:36;;;;;;;15.30;7.93;;;;;;;8.40;35.55;102983.38;4967025;28;20825;-42
2021/12/16 01:55:10;;;;;;;19.30;7.47;;;;;;;8.45;33.82;102983.00;4973062;28;20458;-41
2021/12/16 01:57:42;;;;;;;24.93;8.50;;;;;;;8.45;33.71;102988.31;4972336;28;20538;-43
2021/12/16 02:00:15;;;;;;;20.00;8.70;;;;;;;8.44;35.10;102990.13;4972782;28;20454;-42
2021/12/16 02:02:46;;;;;;;17.23;8.03;;;;;;;8.45;34.44;102989.19;4976055;28;20435;-43
2021/12/16 02:05:26;;;;;;;22.43;8.30;;;;;;;8.41;35.76;102992.19;4976903;28;20434;-43
2021/12/16 02:10:45;;;;;;;12.73;6.70;;;;;;;8.34;39.34;102992.72;4974102;28;20458;-41
2021/12/16 02:13:37;;;;;;;14.00;8.00;;;;;;;8.36;38.44;102997.91;4976588;28;20805;-43
2021/12/16 02:27:27;;;;;;;16.33;7.83;;;;;;;8.46;35.38;102998.81;4970405;28;20470;-42
2021/12/16 02:30:20;;;;;;;25.07;9.20;;;;;;;8.47;34.95;103002.31;4975320;28;20450;-42
2021/12/16 02:32:53;;;;;;;29.70;9.33;;;;;;;8.46;36.07;103004.13;4976108;28;20446;-42
2021/12/16 02:35:31;;;;;;;19.03;8.47;;;;;;;8.49;35.48;102987.06;4976080;28;20441;-42
2021/12/16 02:38:03;;;;;;;21.77;7.87;;;;;;;8.51;35.43;102999.28;4975615;28;20470;-43
2021/12/16 02:40:32;;;;;;;17.90;8.83;;;;;;;8.52;35.22;103003.63;4976025;28;20458;-44
2021/12/16 02:43:09;;;;;;;23.83;9.30;;;;;;;8.50;37.12;103002.06;4975946;28;20445;-41
2021/12/16 02:48:33;;;;;;;15.43;8.33;;;;;;;8.50;37.01;102997.59;4943307;28;20468;-41
2021/12/16 02:51:04;;;;;;;20.40;8.20;;;;;;;8.50;37.16;102997.59;4975848;28;20462;-44
2021/12/16 02:53:34;;;;;;;14.50;7.97;;;;;;;8.50;38.17;102999.41;4975795;28;20448;-47
2021/12/16 02:56:02;;;;;;;17.93;7.50;;;;;;;8.53;37.76;102994.69;4975850;28;20432;-45
2021/12/16 02:58:30;;;;;;;17.23;9.03;;;;;;;8.54;37.62;103006.19;4975302;28;20475;-45
2021/12/16 03:01:04;;;;;;;21.90;8.60;;;;;;;8.54;37.18;103003.50;4975929;28;20451;-43
2021/12/16 03:03:34;;;;;;;16.33;8.47;;;;;;;8.56;35.96;102990.94;4975702;28;20529;-45
2021/12/16 03:06:03;;;;;;;16.03;8.10;;;;;;;8.58;35.00;102989.81;4975965;28;20462;-46
2021/12/16 03:08:32;;;;;;;15.47;8.13;;;;;;;8.61;34.40;102996.69;4975221;28;21049;-45
2021/12/16 03:11:08;;;;;;;21.87;8.27;;;;;;;8.63;34.26;102995.59;4975672;28;20465;-42
2021/12/16 03:13:42;;;;;;;22.87;8.80;;;;;;;8.67;34.19;102997.03;4974873;28;20443;-41
2021/12/16 03:16:20;;;;;;;20.80;8.93;;;;;;;8.67;35.12;103007.66;4975590;28;20435;-42
2021/12/16 03:18:58;;;;;;;20.10;9.10;;;;;;;8.67;36.27;103006.81;4974860;28;20481;-41
2021/12/16 03:21:30;;;;;;;26.60;9.70;;;;;;;8.65;36.75;103012.28;4975567;28;20461;-42
2021/12/16 03:24:22;;;;;;;17.40;8.30;;;;;;;8.66;37.77;103008.63;4975328;28;20441;-43
2021/12/16 03:30:13;;;;;;;18.20;8.30;;;;;;;8.65;38.40;103022.91;4950092;28;20470;-43
2021/12/16 03:33:07;;;;;;;22.20;8.67;;;;;;;8.60;39.66;103032.25;4974989;28;20441;-44
2021/12/16 03:35:40;;;;;;;15.70;7.40;;;;;;;8.56;40.90;103042.31;4975194;28;20427;-44
2021/12/16 03:38:11;;;;;;;22.87;7.97;;;;;;;8.52;41.47;103056.81;4974609;28;20483;-47
2021/12/16 03:40:40;;;;;;;16.03;7.53;;;;;;;8.40;42.04;103052.50;4975140;28;20458;-44
2021/12/16 03:43:11;;;;;;;15.00;8.70;;;;;;;8.35;42.90;103049.41;4974961;28;20435;-45
2021/12/16 03:48:32;;;;;;;18.50;8.77;;;;;;;8.32;39.11;103047.84;4974572;28;20463;-46
2021/12/16 03:51:01;;;;;;;22.57;9.10;;;;;;;8.35;38.85;103046.72;4974746;28;20859;-43
2021/12/16 03:53:29;;;;;;;18.90;8.60;;;;;;;8.29;38.49;103050.75;4974434;28;20450;-43
2021/12/16 03:55:57;;;;;;;18.37;8.77;;;;;;;8.26;33.90;103048.31;4975052;28;20451;-45
2021/12/16 03:58:26;;;;;;;15.13;7.70;;;;;;;8.27;32.47;103054.47;4974152;28;20485;-43
2021/12/16 04:00:58;;;;;;;12.67;7.70;;;;;;;8.28;31.48;103041.06;4974598;28;20801;-43
2021/12/16 04:03:27;;;;;;;11.60;7.43;;;;;;;8.27;29.29;103052.66;4974778;28;20777;-43
2021/12/16 04:05:55;;;;;;;14.53;8.60;;;;;;;8.26;28.70;103064.25;4974931;28;20435;-43
2021/12/16 04:08:23;;;;;;;13.67;8.57;;;;;;;8.27;30.90;103055.31;4974118;28;20845;-45
2021/12/16 04:11:01;;;;;;;9.30;7.93;;;;;;;8.33;28.60;103061.97;4974445;28;20451;-43
2021/12/16 04:13:31;;;;;;;18.00;8.00;;;;;;;8.34;28.78;103072.47;4974554;28;20427;-44
2021/12/16 04:15:58;;;;;;;11.57;7.07;;;;;;;8.30;31.12;103083.50;4974365;28;20920;-45
2021/12/16 04:18:26;;;;;;;17.47;8.07;;;;;;;8.27;29.33;103086.38;4973736;28;20475;-45
2021/12/16 04:20:54;;;;;;;18.60;7.80;;;;;;;8.31;27.34;103077.19;4974222;28;20486;-45
2021/12/16 04:23:22;;;;;;;8.93;7.27;;;;;;;8.28;26.71;103088.91;4974156;28;20478;-45
2021/12/16 04:25:49;;;;;;;12.83;7.70;;;;;;;8.22;27.76;103084.06;4973143;28;20441;-44
2021/12/16 04:28:21;;;;;;;19.20;9.30;;;;;;;8.22;25.88;103093.84;4973596;28;20485;-45
2021/12/16 04:30:50;;;;;;;12.43;7.67;;;;;;;8.23;28.00;103096.41;4974067;28;20447;-43
2021/12/16 04:33:18;;;;;;;10.87;7.70;;;;;;;8.23;28.68;103091.09;4973935;28;20902;-45
2021/12/16 04:35:46;;;;;;;12.57;8.00;;;;;;;8.14;28.47;103101.59;4974139;28;21019;-43
2021/12/16 04:38:14;;;;;;;17.13;8.00;;;;;;;8.10;27.01;103108.13;4972352;28;20487;-46
2021/12/16 04:40:45;;;;;;;14.83;9.53;;;;;;;8.10;23.00;103111.63;4967355;28;20451;-46
2021/12/16 04:43:19;;;;;;;22.63;10.07;;;;;;;8.13;16.94;103114.03;4973687;28;20441;-44
2021/12/16 04:45:48;;;;;;;17.90;8.77;;;;;;;8.15;15.56;103124.56;4973940;28;20510;-44
2021/12/16 04:48:17;;;;;;;14.83;9.10;;;;;;;8.10;20.86;103130.22;4973246;28;20465;-47
2021/12/16 04:50:45;;;;;;;11.43;8.90;;;;;;;8.11;18.89;103145.22;4973449;28;20546;-45
2021/12/16 04:53:13;;;;;;;17.43;8.60;;;;;;;8.15;17.76;103140.50;4973628;28;20531;-44
2021/12/16 04:55:40;;;;;;;10.13;8.10;;;;;;;8.12;17.13;103143.41;4973555;28;20805;-43
2021/12/16 04:58:08;;;;;;;17.70;8.07;;;;;;;8.10;16.24;103146.19;4973101;28;20479;-43
2021/12/16 05:00:36;;;;;;;17.23;8.83;;;;;;;8.15;14.57;103149.31;4973612;28;20537;-46
2021/12/16 05:03:04;;;;;;;9.30;8.30;;;;;;;8.14;15.94;103157.41;4973402;28;20443;-46
2021/12/16 05:05:33;;;;;;;10.83;8.90;;;;;;;8.19;17.79;103145.44;4973505;28;20445;-48
2021/12/16 05:08:00;;;;;;;10.53;9.50;;;;;;;8.25;18.61;103138.78;4973195;28;20473;-45
2021/12/16 05:10:28;;;;;;;13.77;10.33;;;;;;;8.22;22.16;103141.69;4973448;28;20462;-42
2021/12/16 05:12:59;;;;;;;11.23;9.80;;;;;;;8.19;22.41;103163.19;4973310;28;20445;-44
2021/12/16 05:15:33;;;;;;;15.13;9.53;;;;;;;8.23;23.42;103165.50;4973587;28;20530;-45
2021/12/16 05:18:04;;;;;;;21.60;9.27;;;;;;;8.29;22.70;103166.88;4972850;28;20484;-49
2021/12/16 05:20:38;;;;;;;14.33;9.10;;;;;;;8.30;24.64;103166.72;4973373;28;20450;-47
2021/12/16 05:26:09;;;;;;;11.40;7.90;;;;;;;8.31;28.05;103173.75;4973358;28;20523;-42
2021/12/16 05:28:37;;;;;;;10.63;9.00;;;;;;;8.31;29.23;103168.44;4972814;28;20458;-43
2021/12/16 05:31:05;;;;;;;9.03;7.40;;;;;;;8.30;30.29;103166.72;4973209;28;20545;-44
2021/12/16 05:33:33;;;;;;;11.50;8.33;;;;;;;8.22;35.47;103174.44;4972903;28;20927;-45
2021/12/16 05:36:03;;;;;;;11.20;8.37;;;;;;;8.16;37.81;103180.25;4972895;28;20524;-44
2021/12/16 05:38:31;;;;;;;16.03;7.30;;;;;;;8.13;38.25;103188.47;4969213;28;20482;-44
2021/12/16 05:41:01;;;;;;;11.80;7.40;;;;;;;8.15;37.17;103193.66;4968343;28;20458;-43
2021/12/16 05:43:29;;;;;;;13.80;7.97;;;;;;;8.17;37.71;103189.91;4973053;28;20534;-45
2021/12/16 05:45:58;;;;;;;14.07;8.73;;;;;;;8.18;39.21;103198.75;4972968;28;20433;-45
2021/12/16 05:48:29;;;;;;;26.53;7.57;;;;;;;8.15;41.86;103207.78;4972624;28;20461;-49
2021/12/16 05:50:59;;;;;;;22.50;8.60;;;;;;;8.19;36.93;103206.59;4972872;28;20553;-49
2021/12/16 05:53:29;;;;;;;10.67;7.23;;;;;;;8.19;37.33;103211.91;4972700;28;20951;-46
2021/12/16 05:55:57;;;;;;;11.17;8.33;;;;;;;8.23;39.18;103226.66;4972861;28;20526;-45
2021/12/16 05:58:26;;;;;;;17.87;7.83;;;;;;;8.24;40.70;103217.69;4972515;28;20562;-47
2021/12/16 06:00:56;;;;;;;15.17;8.70;;;;;;;8.27;40.26;103227.25;4972649;28;20458;-44
2021/12/16 06:03:24;;;;;;;15.37;9.83;;;;;;;8.30;41.27;103224.38;4972743;28;20865;-44
2021/12/16 06:05:53;;;;;;;13.27;9.30;;;;;;;8.31;41.29;103223.41;4972780;28;20463;-45
2021/12/16 06:08:21;;;;;;;14.60;7.80;;;;;;;8.32;42.46;103227.75;4972513;28;20815;-45
2021/12/16 06:13:42;;;;;;;16.57;8.97;;;;;;;8.36;44.39;103241.66;4972633;28;20439;-45
2021/12/16 06:27:25;;;;;;;20.30;8.43;;;;;;;8.37;47.34;103268.13;4937535;28;20462;-45
2021/12/16 06:29:53;;;;;;;15.97;10.03;;;;;;;8.36;47.80;103268.25;4972740;28;20458;-46
2021/12/16 06:32:21;;;;;;;15.03;8.77;;;;;;;8.30;48.47;103274.91;4972640;28;20445;-48
2021/12/16 06:34:49;;;;;;;18.27;9.63;;;;;;;8.25;47.01;103285.00;4972534;28;20431;-46
2021/12/16 06:37:17;;;;;;;17.17;9.10;;;;;;;8.23;46.25;103285.13;4972535;28;20509;-46
2021/12/16 06:39:45;;;;;;;17.87;8.90;;;;;;;8.26;45.79;103281.38;4964155;28;20991;-44
2021/12/16 06:42:13;;;;;;;19.70;9.63;;;;;;;8.24;47.07;103284.16;4972515;28;20443;-44
2021/12/16 06:44:43;;;;;;;26.27;10.73;;;;;;;8.21;46.87;103288.88;4972490;28;20844;-43
2021/12/16 06:47:17;;;;;;;16.87;8.67;;;;;;;8.24;45.24;103294.78;4972135;28;20465;-43
2021/12/16 06:49:48;;;;;;;19.13;11.10;;;;;;;8.28;43.86;103296.28;4975404;28;20459;-45
2021/12/16 06:52:19;;;;;;;17.20;8.87;;;;;;;8.23;47.59;103286.94;4976152;28;20461;-46
2021/12/16 06:55:04;;;;;;;21.30;10.07;;;;;;;8.22;47.14;103296.72;4975925;28;20455;-45
2021/12/16 06:57:43;;;;;;;29.50;9.13;;;;;;;8.16;47.40;103306.97;4975398;28;20984;-45
2021/12/16 07:00:19;;;;;;;18.33;9.00;;;;;;;8.12;45.57;103301.03;4975628;28;20485;-47
2021/12/16 07:02:57;;;;;;;20.23;10.30;;;;;;;8.14;47.97;103304.44;4975747;28;20509;-48
2021/12/16 07:05:29;;;;;;;18.10;9.50;;;;;;;8.08;48.98;103312.91;4975829;28;20468;-44
2021/12/16 07:07:58;;;;;;;27.00;10.90;;;;;;;8.06;52.89;103314.84;4975146;28;21068;-44
2021/12/16 07:10:29;;;;;;;26.07;10.00;;;;;;;8.06;53.09;103311.31;4975329;28;20455;-47
2021/12/16 07:13:05;;;;;;;18.90;9.77;;;;;;;8.04;52.49;103307.91;4975620;28;20545;-44
2021/12/16 07:15:37;;;;;;;27.10;10.93;;;;;;;7.99;50.53;103316.25;4975511;28;20519;-44
2021/12/16 07:18:05;;;;;;;23.77;10.10;;;;;;;7.94;52.65;103322.88;4975069;28;20471;-45
2021/12/16 07:20:35;;;;;;;20.60;8.80;;;;;;;7.92;55.23;103330.97;4975195;28;20490;-46
2021/12/16 07:23:05;;;;;;;18.73;9.63;;;;;;;7.86;54.62;103344.72;4975410;28;20526;-43
2021/12/16 07:25:34;;;;;;;26.50;10.50;;;;;;;7.84;51.27;103346.66;4975575;28;20787;-45
2021/12/16 07:28:04;;;;;;;32.23;10.93;;;;;;;7.84;54.31;103337.81;4974868;28;20550;-45
2021/12/16 07:30:31;;;;;;;17.23;9.80;;;;;;;7.77;56.40;103343.59;4975618;28;20479;-43
2021/12/16 07:33:00;;;;;;;28.00;9.57;;;;;;;7.72;57.05;103345.75;4975583;28;20531;-44
2021/12/16 07:35:29;;;;;;;30.30;10.20;;;;;;;7.73;56.99;103335.97;4975059;28;20474;-45
2021/12/16 07:37:58;;;;;;;18.20;10.00;;;;;;;7.72;59.47;103345.75;4974356;28;20467;-45
2021/12/16 07:40:29;;;;;;;27.67;11.33;;;;;;;7.68;61.89;103349.59;4974069;28;20561;-45
2021/12/16 07:43:22;;;;;;;22.37;9.80;;;;;;;7.66;62.89;103355.97;4974872;28;20428;-43
2021/12/16 07:45:51;;;;;;;25.63;9.33;;;;;;;7.59;65.33;103360.03;4974989;28;20466;-43
2021/12/16 07:48:22;;;;;;;30.63;11.07;;;;;;;7.57;64.25;103361.97;4974488;28;20821;-42
2021/12/16 07:50:54;;;;;;;20.37;10.70;;;;;;;7.54;64.26;103372.81;4974710;28;20459;-42
2021/12/16 07:53:22;;;;;;;18.70;9.27;;;;;;;7.51;64.41;103362.44;4999654;23;20494;-40
2021/12/16 07:55:50;;;;;;;23.47;9.63;;;;;;;7.47;65.67;103358.28;4986220;28;20438;-42
2021/12/16 07:58:19;;;;;;;19.63;9.07;;;;;;;7.44;65.37;103355.88;4993568;28;20545;-40
2021/12/16 08:00:48;;;;;;;17.27;9.50;;;;;;;7.41;65.36;103356.94;4994033;28;20913;-44
2021/12/16 08:03:17;;;;;;;21.90;9.97;;;;;;;7.38;65.90;103354.50;4993657;28;20476;-40
2021/12/16 08:05:53;;;;;;;19.73;9.90;;;;;;;7.36;65.88;103351.13;4994400;28;20434;-40
2021/12/16 08:08:21;;;;;;;17.57;8.63;;;;;;;7.36;64.80;103355.59;4993473;28;20497;-40
2021/12/16 08:10:49;;;;;;;29.60;9.87;;;;;;;7.37;64.04;103359.94;4993765;28;20533;-42
2021/12/16 08:13:17;;;;;;;16.23;9.90;;;;;;;7.39;63.89;103365.97;4993763;28;20557;-42
2021/12/16 08:15:45;;;;;;;20.40;9.87;;;;;;;7.41;63.25;103370.22;4994130;28;20426;-41
2021/12/16 08:18:14;;;;;;;30.50;10.37;;;;;;;7.43;63.74;103372.78;4993370;28;20882;-41
2021/12/16 08:20:42;;;;;;;29.33;10.03;;;;;;;7.43;63.27;103380.75;4993681;28;20518;-42
2021/12/16 08:23:11;;;;;;;31.13;10.40;;;;;;;7.42;63.44;103377.22;4993250;28;20553;-41
2021/12/16 08:25:39;;;;;;;20.83;9.67;;;;;;;7.44;63.01;103395.69;4993873;28;20510;-43
2021/12/16 08:28:07;;;;;;;23.27;12.67;;;;;;;7.47;60.85;103398.97;4993138;28;20498;-41
2021/12/16 08:30:38;;;;;;;14.20;8.63;;;;;;;7.51;60.48;103399.59;4993699;28;20431;-40
2021/12/16 08:33:09;;;;;;;26.07;10.03;;;;;;;7.50;60.77;103412.03;4993294;28;20561;-40
2021/12/16 08:35:40;;;;;;;25.20;9.37;;;;;;;7.53;59.96;103421.56;4993439;28;20437;-41
2021/12/16 08:38:08;;;;;;;21.80;11.60;;;;;;;7.51;60.33;103426.16;4990981;28;20545;-44
2021/12/16 08:40:39;;;;;;;27.33;10.10;;;;;;;7.47;62.04;103428.19;4973898;28;20474;-40
2021/12/16 08:43:07;;;;;;;19.40;10.20;;;;;;;7.45;62.33;103422.13;4973838;28;20463;-41
2021/12/16 08:45:36;;;;;;;28.50;11.20;;;;;;;7.44;62.23;103427.53;4973922;28;20445;-41
2021/12/16 08:48:06;;;;;;;26.73;11.20;;;;;;;7.42;62.16;103434.78;4973394;28;20471;-42
2021/12/16 08:50:36;;;;;;;20.73;10.23;;;;;;;7.42;61.03;103429.47;4974010;28;20435;-41
2021/12/16 08:53:06;;;;;;;18.67;10.90;;;;;;;7.42;61.03;103432.97;4973533;28;20906;-42
2021/12/16 08:55:35;;;;;;;23.67;11.77;;;;;;;7.44;59.88;103430.19;4973664;28;20443;-40
2021/12/16 08:58:05;;;;;;;32.63;12.50;;;;;;;7.46;59.01;103433.63;4973245;28;21101;-40
2021/12/16 09:00:39;;;;;;;24.83;11.47;;;;;;;7.48;58.05;103431.69;4973625;28;20482;-40
2021/12/16 09:03:07;;;;;;;30.70;11.53;;;;;;;7.53;56.45;103441.00;4973506;28;20469;-40
2021/12/16 09:05:35;;;;;;;29.73;10.40;;;;;;;7.57;55.41;103442.50;4973690;28;20434;-40
2021/12/16 09:08:04;;;;;;;31.23;11.73;;;;;;;7.62;54.51;103440.34;4973003;28;20545;-41
2021/12/16 09:10:34;;;;;;;25.53;12.13;;;;;;;7.69;52.68;103438.94;4973070;28;20438;-41
2021/12/16 09:13:07;;;;;;;25.97;12.00;;;;;;;7.75;51.72;103438.50;4973233;28;20491;-40
2021/12/16 09:15:42;;;;;;;32.27;12.40;;;;;;;7.84;50.49;103438.78;4973584;28;20431;-45
2021/12/16 09:18:10;;;;;;;29.07;12.17;;;;;;;7.91;48.41;103442.69;4973018;28;20477;-43
2021/12/16 09:20:38;;;;;;;30.37;12.73;;;;;;;7.93;49.40;103446.91;4973162;28;21030;-41
2021/12/16 09:23:08;;;;;;;30.27;14.40;;;;;;;7.97;50.64;103452.84;4972982;28;20459;-40
2021/12/16 09:25:37;;;;;;;46.03;13.87;;;;;;;8.02;50.94;103456.00;4973129;28;20928;-43
2021/12/16 09:28:06;;;;;;;30.53;13.60;;;;;;;8.11;48.54;103453.53;4972923;28;20918;-41
2021/12/16 09:30:34;;;;;;;21.97;13.00;;;;;;;8.18;47.94;103454.75;4973326;28;20433;-42
2021/12/16 09:33:05;;;;;;;21.67;11.57;;;;;;;8.18;52.56;103457.41;4973067;28;20979;-45
2021/12/16 09:35:39;;;;;;;50.33;14.63;;;;;;;8.21;53.74;103465.13;4973292;28;20453;-43
2021/12/16 09:38:09;;;;;;;30.07;12.43;;;;;;;8.16;58.95;103471.78;4972503;28;21001;-41
2021/12/16 09:40:46;;;;;;;27.17;11.73;;;;;;;8.11;61.62;103466.81;4965795;28;20479;-40
2021/12/16 09:43:16;;;;;;;35.80;13.00;;;;;;;8.11;61.65;103471.28;4972981;28;20481;-42
2021/12/16 09:45:51;;;;;;;28.73;11.93;;;;;;;8.11;61.22;103465.97;4973461;28;20539;-40
2021/12/16 09:48:19;;;;;;;19.20;11.13;;;;;;;8.10;61.58;103473.06;4972689;28;20807;-40
2021/12/16 09:50:46;;;;;;;18.53;10.23;;;;;;;8.06;63.26;103482.25;4973110;28;20800;-40
2021/12/16 09:53:14;;;;;;;23.67;10.73;;;;;;;8.08;62.54;103479.47;4972744;28;20551;-41
2021/12/16 09:55:44;;;;;;;37.43;12.93;;;;;;;8.09;61.84;103476.72;4973183;28;20530;-42
2021/12/16 09:58:11;;;;;;;19.60;10.03;;;;;;;8.12;63.77;103486.28;4972614;28;20466;-40
2021/12/16 10:00:40;;;;;;;15.43;8.83;;;;;;;8.07;65.75;103486.59;4972817;28;20493;-40
2021/12/16 10:03:08;;;;;;;25.77;9.90;;;;;;;8.06;64.27;103490.22;4972463;28;20463;-41
2021/12/16 10:05:36;;;;;;;33.33;11.03;;;;;;;8.02;67.65;103479.94;4972982;28;20467;-42
2021/12/16 10:08:05;;;;;;;21.23;9.60;;;;;;;8.05;65.68;103487.69;4972368;28;20466;-41
2021/12/16 10:10:33;;;;;;;39.20;10.77;;;;;;;8.09;64.75;103489.16;4972944;28;20535;-40
2021/12/16 10:13:04;;;;;;;18.30;9.23;;;;;;;8.09;65.90;103503.28;4972576;28;20463;-41
2021/12/16 10:18:22;;;;;;;12.70;8.93;;;;;;;8.11;67.27;103506.69;4972293;28;20471;-42
2021/12/16 10:20:54;;;;;;;56.80;14.37;;;;;;;8.14;66.12;103509.09;4972783;28;20478;-43
2021/12/16 10:23:24;;;;;;;47.07;14.00;;;;;;;8.19;67.68;103504.28;4973641;28;20458;-42
2021/12/16 10:25:54;;;;;;;73.83;19.00;;;;;;;8.25;66.56;103511.81;4976443;28;20530;-40
2021/12/16 10:28:25;;;;;;;22.23;10.23;;;;;;;8.29;68.22;103499.19;4975678;28;20473;-40
2021/12/16 10:30:58;;;;;;;14.30;7.97;;;;;;;8.28;71.22;103487.69;4976288;28;20521;-41
2021/12/16 10:33:32;;;;;;;10.83;7.43;;;;;;;8.27;73.99;103493.97;4976100;28;20549;-40
2021/12/16 10:36:13;;;;;;;12.30;8.63;;;;;;;8.29;76.45;103497.38;4976291;28;20518;-40
2021/12/16 10:38:44;;;;;;;8.63;6.33;;;;;;;8.34;75.30;103510.31;4975976;28;20466;-40
2021/12/16 10:41:17;;;;;;;8.87;7.40;;;;;;;8.38;74.52;103511.78;4976281;28;20507;-40
2021/12/16 10:43:47;;;;;;;15.13;7.97;;;;;;;8.46;73.51;103519.16;4975807;28;20461;-42
2021/12/16 10:46:19;;;;;;;10.83;7.57;;;;;;;8.48;75.36;103527.91;4976233;28;20458;-40
2021/12/16 10:48:50;;;;;;;17.53;8.20;;;;;;;8.51;75.01;103522.34;4975545;28;20546;-40
2021/12/16 10:51:23;;;;;;;10.97;7.53;;;;;;;8.45;79.09;103518.34;4975914;28;20539;-41
2021/12/16 10:54:07;;;;;;;16.67;8.00;;;;;;;8.48;78.18;103498.66;4975559;28;20550;-41
2021/12/16 10:56:41;;;;;;;28.80;12.03;;;;;;;8.49;77.71;103497.66;4975475;28;20435;-42
2021/12/16 10:59:13;;;;;;;32.03;8.93;;;;;;;8.47;79.09;103510.25;4975807;28;20531;-40
2021/12/16 11:01:48;;;;;;;12.27;6.50;;;;;;;8.44;79.84;103510.47;4975550;28;20474;-40
2021/12/16 11:04:23;;;;;;;16.07;6.90;;;;;;;8.42;81.57;103515.91;4975593;28;20454;-44
2021/12/16 11:06:54;;;;;;;12.23;6.93;;;;;;;8.42;82.52;103517.72;4975370;28;20481;-41
2021/12/16 11:09:51;;;;;;;10.67;6.33;;;;;;;8.38;83.03;103529.53;4975721;28;20434;-41
2021/12/16 11:12:34;;;;;;;15.53;7.47;;;;;;;8.48;81.33;103536.72;4975621;28;20811;-40
2021/12/16 11:15:09;;;;;;;12.20;6.60;;;;;;;8.53;81.33;103531.91;4975658;28;20782;-44
2021/12/16 11:17:39;;;;;;;11.40;6.73;;;;;;;8.62;80.44;103536.53;4975144;28;20590;-41
2021/12/16 11:20:14;;;;;;;10.07;6.30;;;;;;;8.67;82.10;103538.84;4975358;28;20899;-40
2021/12/16 11:22:47;;;;;;;15.03;7.00;;;;;;;8.69;83.22;103536.94;4975152;28;20509;-40
2021/12/16 11:25:19;;;;;;;7.97;5.33;;;;;;;8.75;83.05;103541.78;4975501;28;20837;-40
2021/12/16 11:27:49;;;;;;;11.83;7.73;;;;;;;8.75;85.04;103539.94;4974896;28;20570;-41
2021/12/16 11:30:38;;;;;;;10.77;6.00;;;;;;;8.80;84.02;103540.47;4975359;28;20494;-41
2021/12/16 11:33:21;;;;;;;9.13;6.00;;;;;;;8.89;83.70;103539.75;4974876;28;20463;-42
2021/12/16 11:35:59;;;;;;;13.33;6.73;;;;;;;9.04;84.11;103555.50;4975156;28;20439;-41
2021/12/16 11:38:32;;;;;;;10.60;7.10;;;;;;;9.09;86.63;103556.00;4974708;28;20467;-41
2021/12/16 11:41:09;;;;;;;12.30;6.87;;;;;;;9.12;88.13;103569.06;4974823;28;20893;-41
2021/12/16 11:43:42;;;;;;;12.63;7.20;;;;;;;9.11;90.47;103559.41;4974713;28;20469;-41
2021/12/16 11:46:21;;;;;;;12.53;7.47;;;;;;;9.00;91.01;103548.72;4975273;28;20435;-41
2021/12/16 11:49:11;;;;;;;12.97;6.60;;;;;;;8.99;90.12;103552.34;4974776;28;20451;-41
2021/12/16 11:51:43;;;;;;;9.17;7.17;;;;;;;8.97;90.09;103549.81;4974776;28;20474;-41
2021/12/16 11:54:20;;;;;;;13.03;7.57;;;;;;;8.93;90.23;103558.97;4974597;28;20517;-41
2021/12/16 11:56:52;;;;;;;11.77;7.27;;;;;;;8.93;89.78;103580.25;4974446;28;20804;-40
2021/12/16 11:59:23;;;;;;;11.80;6.63;;;;;;;8.99;88.81;103578.97;4974841;28;20459;-40
2021/12/16 12:01:51;;;;;;;15.40;7.00;;;;;;;9.02;88.71;103582.22;4974595;28;20482;-44
2021/12/16 12:04:26;;;;;;;45.93;13.00;;;;;;;9.03;88.69;103583.94;4974332;28;20479;-41
2021/12/16 12:06:56;;;;;;;62.70;14.37;;;;;;;8.96;90.22;103585.34;4974228;28;20545;-41
2021/12/16 12:09:35;;;;;;;11.80;7.63;;;;;;;8.91;90.15;103568.91;4974856;28;20441;-41
2021/12/16 12:12:03;;;;;;;27.03;11.10;;;;;;;8.87;89.78;103578.06;4974555;28;20461;-42
2021/12/16 12:14:34;;;;;;;16.17;8.93;;;;;;;8.88;89.43;103585.94;4974330;28;20437;-42
2021/12/16 12:17:08;;;;;;;12.70;6.90;;;;;;;8.86;89.38;103584.38;4974276;28;20467;-42
2021/12/16 12:19:42;;;;;;;15.13;7.23;;;;;;;8.87;88.82;103580.72;4974543;28;20867;-41
2021/12/16 12:22:12;;;;;;;17.47;7.27;;;;;;;8.92;88.70;103586.56;4974524;28;21022;-45
2021/12/16 12:24:44;;;;;;;14.93;8.60;;;;;;;8.97;88.04;103580.88;4974091;28;20439;-43
2021/12/16 12:27:15;;;;;;;16.30;9.03;;;;;;;9.02;87.95;103582.22;4973831;28;20558;-43
2021/12/16 12:29:46;;;;;;;9.80;8.30;;;;;;;9.08;87.41;103583.59;4974510;28;20518;-42
2021/12/16 12:32:18;;;;;;;15.00;8.77;;;;;;;9.07;89.06;103585.41;4974001;28;20944;-42
2021/12/16 12:34:47;;;;;;;16.13;8.57;;;;;;;9.06;89.49;103591.69;4973972;28;20427;-43
2021/12/16 12:37:20;;;;;;;16.93;8.60;;;;;;;9.03;89.73;103596.38;4973459;28;20459;-42
2021/12/16 12:39:51;;;;;;;19.90;8.90;;;;;;;9.03;90.20;103610.56;4973832;28;20462;-43
2021/12/16 12:42:19;;;;;;;13.67;9.07;;;;;;;9.01;89.97;103611.63;4973808;28;20976;-42
2021/12/16 12:44:48;;;;;;;15.93;8.13;;;;;;;9.04;89.39;103614.06;4973698;28;20515;-44
2021/12/16 12:47:19;;;;;;;17.67;8.20;;;;;;;8.97;90.55;103631.44;4972592;28;21004;-45
2021/12/16 12:49:47;;;;;;;15.83;8.87;;;;;;;8.84;90.91;103620.91;4973799;28;20435;-43
2021/12/16 12:52:19;;;;;;;13.50;8.20;;;;;;;8.72;90.91;103614.66;4973710;28;20874;-42
2021/12/16 12:55:00;;;;;;;18.10;9.27;;;;;;;8.67;89.76;103614.19;4973532;28;20431;-42
2021/12/16 12:57:29;;;;;;;13.57;9.07;;;;;;;8.66;89.32;103615.13;4973288;28;20566;-42
2021/12/16 12:59:59;;;;;;;15.37;10.90;;;;;;;8.65;88.84;103605.47;4973654;28;20437;-41
2021/12/16 13:02:32;;;;;;;15.00;9.20;;;;;;;8.60;88.73;103612.91;4973140;28;20561;-42
2021/12/16 13:05:03;;;;;;;17.13;10.13;;;;;;;8.63;87.49;103603.88;4973876;28;20814;-44
2021/12/16 13:07:36;;;;;;;19.70;11.40;;;;;;;8.57;88.08;103610.50;4973258;28;20462;-42
2021/12/16 13:10:10;;;;;;;20.13;9.10;;;;;;;8.50;88.68;103608.41;4973639;28;20441;-43
2021/12/16 13:12:43;;;;;;;17.90;8.93;;;;;;;8.53;86.92;103601.06;4973243;28;20545;-43
2021/12/16 13:15:32;;;;;;;11.80;8.50;;;;;;;8.55;86.45;103603.59;4973635;28;20431;-43
2021/12/16 13:26:40;;;;;;;16.83;8.93;;;;;;;8.48;85.19;103594.38;4969977;28;20881;-42
2021/12/16 13:29:16;;;;;;;21.60;9.80;;;;;;;8.44;85.22;103590.25;4973392;28;20445;-42
2021/12/16 13:31:53;;;;;;;18.00;9.10;;;;;;;8.42;84.55;103589.53;4973357;28;20426;-43
2021/12/16 13:34:35;;;;;;;20.77;10.30;;;;;;;8.37;84.55;103581.00;4972905;28;20458;-42
2021/12/16 13:37:11;;;;;;;16.77;10.07;;;;;;;8.33;83.36;103583.06;4972873;28;20467;-42
2021/12/16 13:39:46;;;;;;;20.50;9.60;;;;;;;8.28;82.72;103587.88;4973142;28;20434;-42